Rehoboth, Delaware
Current Conditions -  °F | °C
As of 1:54 AM on Friday 28 Nov 2014 (Local Time) from KGED Reporting Station
Clear Clear  
Wind Chill: 31°   Ceiling: Unl
Heat Index: 31°   Visibility: 9mi
Dew Point: 27°   Wind: 3mph
Humidity: 85%   Direction: NA
Pressure: 30.14"   Gusts: NA
Location:  38.7115°N, 75.1086°W
Report Text: KGED 280654Z AUTO VRB03KT 9SM CLR M01/M03 A3014 RMK AO2 SLP208 T10061028
Loading
Personal Weather Stations






























Interactive Weather Map New forecast layout! Learn more

10-Day Weather Forecast

Advertisements
Track Severe Weather on mobile